CST,Max TemperatureF,Mean TemperatureF,Min TemperatureF,Max Dew PointF,MeanDew PointF,Min DewpointF,Max Humidity, Mean Humidity, Min Humidity, Max Sea Level PressureIn, Mean Sea Level PressureIn, Min Sea Level PressureIn, Max VisibilityMiles, Mean VisibilityMiles, Min VisibilityMiles, Max Wind SpeedMPH, Mean Wind SpeedMPH, Max Gust SpeedMPH,PrecipitationIn, CloudCover, Events, WindDirDegrees
2012-2-1,55,41,26,38,34,28,100,75,50,30.17,30.12,30.04,10,9,6,9,5,12,0.00,0,,325
2012-2-2,55,39,22,37,29,23,100,71,41,30.33,30.23,30.15,10,4,0,10,5,14,0.00,0,Fog,42
2012-2-3,39,36,32,36,33,31,100,93,85,30.38,30.30,30.22,4,2,0,22,13,29,0.03,7,Fog-Rain,61
2012-2-4,35,34,33,34,32,30,100,95,89,30.28,30.19,30.14,10,3,0,24,14,31,0.41,8,Fog-Rain-Snow,38
2012-2-5,35,30,25,30,27,23,100,91,82,30.39,30.34,30.28,10,4,0,18,9,21,0.00,7,Fog,325
2012-2-6,35,29,23,30,25,21,100,88,75,30.31,30.24,30.17,10,4,0,13,7,14,0.00,6,Fog,251
2012-2-7,32,29,26,31,28,24,100,93,85,30.46,30.35,30.19,10,4,0,15,9,18,0.01,7,Fog-Rain-Snow,31
2012-2-8,29,22,14,27,20,12,92,80,68,30.49,30.44,30.38,10,9,3,13,6,17,0.00,6,,320
2012-2-9,32,22,11,27,19,9,92,84,75,30.39,30.24,30.07,10,9,7,13,7,15,0.00,6,,206
2012-2-10,34,23,11,29,15,3,85,74,62,30.47,30.17,29.97,10,9,6,29,19,33,0.00,7,,308
2012-2-11,22,14,6,6,2,-3,76,61,45,30.68,30.60,30.49,10,10,10,24,16,32,0.00,0,,303
2012-2-12,31,19,7,12,4,-1,73,53,32,30.59,30.45,30.22,10,10,10,15,8,18,0.00,1,,270
2012-2-13,31,29,26,30,25,10,100,73,46,30.16,29.94,29.79,10,4,0,22,11,26,0.04,8,Fog-Rain-Snow,167
2012-2-14,39,35,30,31,30,27,100,88,76,29.94,29.85,29.77,10,8,5,16,8,20,0.00,7,,215
2012-2-15,44,35,26,37,33,27,100,88,76,30.02,29.96,29.91,10,5,1,13,5,15,0.02,4,Rain,156
2012-2-16,46,36,26,32,27,21,100,71,41,30.24,30.16,30.00,10,7,2,18,10,22,0.00,0,,284
2012-2-17,51,39,27,33,27,22,81,60,39,30.19,30.11,30.06,10,10,10,25,11,33,0.00,2,,250
2012-2-18,41,32,22,23,21,18,88,68,48,30.29,30.22,30.17,10,10,10,14,7,22,0.00,0,,15
2012-2-19,42,32,22,24,21,20,88,66,43,30.22,30.16,30.12,10,10,10,12,6,18,0.00,0,,121
2012-2-20,48,37,25,30,25,19,81,66,51,30.18,29.97,29.66,10,10,10,25,15,31,T,2,,140
2012-2-21,49,42,34,37,30,26,92,67,42,29.78,29.71,29.59,10,10,10,26,13,35,T,5,Rain,244
2012-2-22,54,43,32,31,30,27,82,60,38,29.66,29.51,29.43,10,10,9,22,6,28,T,3,Rain,237
2012-2-23,39,35,31,37,34,29,100,88,75,29.55,29.44,29.35,10,5,1,23,10,30,0.66,8,Rain-Snow,52
2012-2-24,32,29,26,31,25,18,96,83,64,30.11,29.89,29.59,10,6,0,25,19,37,0.04,7,Fog-Snow,298
2012-2-25,32,25,17,21,16,9,81,67,53,30.35,30.23,30.09,10,9,2,29,12,33,T,2,Snow,324
2012-2-26,57,42,26,32,26,17,81,57,33,30.19,29.98,29.86,10,10,10,28,17,38,0.00,0,,232
2012-2-27,39,31,22,24,19,14,78,65,52,30.51,30.42,30.23,10,10,5,22,11,28,0.00,1,,319
2012-2-28,53,41,29,46,32,23,86,69,52,30.40,30.01,29.47,10,10,8,26,14,35,0.05,8,Rain,131
2012-2-29,53,43,33,49,33,25,83,69,55,29.82,29.56,29.39,10,9,2,38,23,48,0.28,6,Rain-Thunderstorm,240